Time;durP1;ratioP1;P1;durP2;ratioP2;P2;SDS_P1;SDS_P2;PMS_P1;PMS_P2;Temp;Humidity;BMP_temperature;BMP_pressure;BME280_temperature;BME280_humidity;BME280_pressure;Samples;Min_cycle;Max_cycle;Signal;HPM_P1;HPM_P2
2022/04/19 00:00:44;;;;;;;8.80;7.00;;;;;;;;;;4973128;28;20088;-75
2022/04/19 00:03:10;;;;;;;5.75;5.15;;;;;;;;;;4972483;28;20047;-74
2022/04/19 00:05:36;;;;;;;5.85;5.30;;;;;;;;;;4956875;28;20046;-74
2022/04/19 00:08:05;;;;;;;8.05;5.65;;;;;;;;;;4990368;28;20051;-74
2022/04/19 00:10:31;;;;;;;7.28;5.80;;;;;;;;;;4989011;28;20044;-75
2022/04/19 00:13:01;;;;;;;7.22;5.40;;;;;;;;;;4990601;28;20050;-76
2022/04/19 00:15:28;;;;;;;6.47;5.72;;;;;;;;;;4973890;28;20046;-75
2022/04/19 00:17:54;;;;;;;9.32;5.40;;;;;;;;;;4991442;28;20482;-75
2022/04/19 00:20:21;;;;;;;6.05;5.45;;;;;;;;;;4973854;28;20073;-75
2022/04/19 00:22:49;;;;;;;8.07;5.28;;;;;;;;;;4989115;28;20046;-74
2022/04/19 00:25:15;;;;;;;9.25;5.97;;;;;;;;;;4957109;28;20510;-73
2022/04/19 00:27:41;;;;;;;7.75;5.75;;;;;;;;;;4988820;28;20034;-74
2022/04/19 00:30:07;;;;;;;6.35;5.15;;;;;;;;;;4989252;28;20042;-75
2022/04/19 00:32:33;;;;;;;8.65;6.13;;;;;;;;;;4988388;28;20070;-75
2022/04/19 00:34:59;;;;;;;5.45;4.95;;;;;;;;;;4991159;28;20141;-75
2022/04/19 00:37:25;;;;;;;5.63;5.20;;;;;;;;;;4972501;28;20086;-75
2022/04/19 00:39:52;;;;;;;5.57;5.07;;;;;;;;;;4972753;28;20140;-74
2022/04/19 00:42:18;;;;;;;5.85;5.28;;;;;;;;;;4990378;28;20542;-75
2022/04/19 00:44:44;;;;;;;5.75;5.05;;;;;;;;;;4972550;28;20120;-74
2022/04/19 00:47:10;;;;;;;5.68;4.43;;;;;;;;;;4990191;28;20042;-75
2022/04/19 00:49:40;;;;;;;8.02;5.35;;;;;;;;;;4972438;28;20534;-74
2022/04/19 00:52:07;;;;;;;6.25;5.13;;;;;;;;;;4964864;28;20038;-74
2022/04/19 00:54:33;;;;;;;10.23;5.97;;;;;;;;;;4972365;28;20050;-75
2022/04/19 00:56:59;;;;;;;9.27;5.80;;;;;;;;;;4972811;28;20581;-75
2022/04/19 00:59:26;;;;;;;5.30;4.68;;;;;;;;;;4972537;28;20137;-73
2022/04/19 01:01:52;;;;;;;5.57;5.00;;;;;;;;;;4972227;28;20058;-74
2022/04/19 01:04:18;;;;;;;7.65;5.32;;;;;;;;;;4989182;28;20046;-75
2022/04/19 01:06:44;;;;;;;5.80;5.30;;;;;;;;;;4983197;28;20077;-74
2022/04/19 01:09:11;;;;;;;10.10;5.05;;;;;;;;;;4998686;28;20101;-76
2022/04/19 01:14:22;;;;;;;5.05;4.65;;;;;;;;;;4986675;28;20535;-76
2022/04/19 01:16:49;;;;;;;9.35;5.97;;;;;;;;;;4981145;28;20042;-76
2022/04/19 01:19:15;;;;;;;6.47;5.53;;;;;;;;;;4992460;28;20080;-75
2022/04/19 01:21:50;;;;;;;5.50;5.10;;;;;;;;;;4975966;28;20102;-74
2022/04/19 01:24:25;;;;;;;6.20;5.60;;;;;;;;;;4992267;28;20124;-74
2022/04/19 01:26:53;;;;;;;6.90;6.07;;;;;;;;;;4992214;28;20522;-75
2022/04/19 01:29:19;;;;;;;8.82;5.07;;;;;;;;;;4976225;28;20046;-75
2022/04/19 01:31:47;;;;;;;6.18;5.10;;;;;;;;;;4975944;28;20203;-74
2022/04/19 01:34:14;;;;;;;10.40;6.85;;;;;;;;;;4992628;28;20038;-74
2022/04/19 01:36:41;;;;;;;5.68;5.18;;;;;;;;;;5000241;28;20057;-74
2022/04/19 01:39:07;;;;;;;5.63;5.03;;;;;;;;;;5013263;28;20056;-74
2022/04/19 01:41:33;;;;;;;5.88;5.38;;;;;;;;;;4980881;28;20042;-77
2022/04/19 01:44:07;;;;;;;7.05;5.22;;;;;;;;;;5013278;28;20588;-75
2022/04/19 01:46:34;;;;;;;5.50;5.00;;;;;;;;;;4979006;28;20188;-75
2022/04/19 01:49:04;;;;;;;6.45;5.85;;;;;;;;;;5010275;28;20049;-75
2022/04/19 01:51:30;;;;;;;6.22;5.18;;;;;;;;;;5011392;28;20041;-75
2022/04/19 01:53:56;;;;;;;5.75;5.35;;;;;;;;;;5012611;28;20125;-74
2022/04/19 01:56:23;;;;;;;5.85;5.30;;;;;;;;;;4995197;28;20146;-76
2022/04/19 01:58:52;;;;;;;5.90;5.40;;;;;;;;;;5012075;28;20037;-74
2022/04/19 02:01:19;;;;;;;8.20;5.53;;;;;;;;;;4994856;28;20057;-76
2022/04/19 02:03:45;;;;;;;7.93;5.78;;;;;;;;;;4995251;28;20042;-74
2022/04/19 02:06:16;;;;;;;7.88;4.82;;;;;;;;;;4995015;28;20049;-74
2022/04/19 02:08:42;;;;;;;5.05;4.60;;;;;;;;;;4994401;28;20038;-75
2022/04/19 02:11:15;;;;;;;7.05;5.25;;;;;;;;;;4994957;28;20049;-74
2022/04/19 02:13:43;;;;;;;9.82;6.22;;;;;;;;;;4994477;28;20053;-75
2022/04/19 02:16:17;;;;;;;5.47;4.80;;;;;;;;;;4979736;28;20042;-74
2022/04/19 02:18:43;;;;;;;7.22;5.38;;;;;;;;;;4995157;28;20088;-76
2022/04/19 02:21:09;;;;;;;10.65;6.38;;;;;;;;;;4994460;28;20081;-77
2022/04/19 02:23:35;;;;;;;8.20;6.38;;;;;;;;;;4994246;28;20041;-77
2022/04/19 02:26:02;;;;;;;5.90;5.38;;;;;;;;;;5007996;28;20046;-76
2022/04/19 02:28:29;;;;;;;6.28;5.78;;;;;;;;;;4994291;28;20052;-76
2022/04/19 02:31:08;;;;;;;9.68;5.78;;;;;;;;;;4994530;28;20089;-76
2022/04/19 02:33:35;;;;;;;5.78;5.28;;;;;;;;;;4994319;28;20058;-77
2022/04/19 02:36:03;;;;;;;10.05;5.53;;;;;;;;;;4994480;28;20046;-76
2022/04/19 02:38:30;;;;;;;8.38;5.68;;;;;;;;;;5010444;28;20089;-75
2022/04/19 02:40:56;;;;;;;6.18;5.57;;;;;;;;;;4977697;28;20425;-76
2022/04/19 02:43:23;;;;;;;6.47;5.65;;;;;;;;;;4994030;28;20129;-77
2022/04/19 02:45:52;;;;;;;6.60;5.97;;;;;;;;;;4994075;28;20133;-76
2022/04/19 02:48:24;;;;;;;9.07;5.53;;;;;;;;;;5010465;28;20046;-77
2022/04/19 02:50:52;;;;;;;7.18;5.90;;;;;;;;;;4993819;28;20042;-79
2022/04/19 02:53:18;;;;;;;8.10;5.88;;;;;;;;;;4994148;28;20056;-79
2022/04/19 02:55:44;;;;;;;8.52;6.10;;;;;;;;;;4993959;28;20045;-78
2022/04/19 02:58:09;;;;;;;6.75;5.78;;;;;;;;;;4993769;28;20046;-77
2022/04/19 03:00:37;;;;;;;6.05;5.15;;;;;;;;;;4993819;28;20498;-78
2022/04/19 03:03:03;;;;;;;7.97;5.43;;;;;;;;;;4994052;28;20045;-78
2022/04/19 03:05:30;;;;;;;7.15;5.80;;;;;;;;;;4993922;28;20057;-77
2022/04/19 03:07:56;;;;;;;6.90;6.22;;;;;;;;;;5010866;28;20124;-77
2022/04/19 03:10:23;;;;;;;8.02;6.40;;;;;;;;;;4993668;28;20080;-77
2022/04/19 03:12:52;;;;;;;8.68;6.10;;;;;;;;;;4993636;28;20042;-77
2022/04/19 03:15:20;;;;;;;6.75;6.00;;;;;;;;;;4993352;28;20053;-78
2022/04/19 03:17:47;;;;;;;11.60;6.30;;;;;;;;;;5009369;28;20506;-76
2022/04/19 03:20:16;;;;;;;6.70;6.07;;;;;;;;;;4976873;28;20431;-77
2022/04/19 03:28:18;;;;;;;7.82;5.65;;;;;;;;;;5009682;28;20066;-77
2022/04/19 03:30:44;;;;;;;9.52;5.65;;;;;;;;;;4993258;28;20143;-78
2022/04/19 03:33:12;;;;;;;5.50;5.00;;;;;;;;;;5009353;28;20096;-77
2022/04/19 03:35:38;;;;;;;6.90;5.50;;;;;;;;;;4993226;28;20136;-78
2022/04/19 03:38:05;;;;;;;6.95;5.28;;;;;;;;;;5004316;28;20105;-70
2022/04/19 03:40:31;;;;;;;6.85;6.10;;;;;;;;;;5009029;28;20057;-70
2022/04/19 03:42:57;;;;;;;5.60;5.10;;;;;;;;;;4992810;28;20063;-68
2022/04/19 03:45:24;;;;;;;10.95;5.53;;;;;;;;;;5010781;28;20053;-69
2022/04/19 03:47:51;;;;;;;7.18;5.22;;;;;;;;;;5011393;28;20036;-70
2022/04/19 03:50:17;;;;;;;5.70;5.13;;;;;;;;;;5011027;28;20053;-69
2022/04/19 03:52:44;;;;;;;6.55;4.97;;;;;;;;;;5009661;28;20037;-69
2022/04/19 03:55:10;;;;;;;6.85;5.43;;;;;;;;;;5008460;28;20076;-70
2022/04/19 03:57:37;;;;;;;7.32;5.38;;;;;;;;;;4976388;28;20037;-69
2022/04/19 04:00:04;;;;;;;6.50;6.00;;;;;;;;;;5009080;28;20588;-69
2022/04/19 04:02:41;;;;;;;8.23;5.00;;;;;;;;;;5010567;28;20117;-70
2022/04/19 04:05:08;;;;;;;6.85;5.15;;;;;;;;;;4992305;28;20793;-70
2022/04/19 04:07:37;;;;;;;6.63;6.00;;;;;;;;;;4992277;28;20566;-69
2022/04/19 04:10:04;;;;;;;6.45;5.45;;;;;;;;;;4992285;28;20069;-69
2022/04/19 04:12:30;;;;;;;9.13;5.28;;;;;;;;;;4992710;28;20132;-69
2022/04/19 04:14:56;;;;;;;5.82;5.05;;;;;;;;;;4992144;28;20517;-68
2022/04/19 04:17:22;;;;;;;5.18;4.78;;;;;;;;;;5000260;28;20034;-70
2022/04/19 04:19:48;;;;;;;5.10;4.70;;;;;;;;;;5006620;28;20066;-69
2022/04/19 04:22:18;;;;;;;8.50;5.07;;;;;;;;;;4992300;28;20514;-69
2022/04/19 04:24:46;;;;;;;5.45;5.03;;;;;;;;;;5007578;28;20072;-70
2022/04/19 04:27:12;;;;;;;5.18;4.72;;;;;;;;;;4991399;28;20125;-70
2022/04/19 04:29:39;;;;;;;6.35;5.75;;;;;;;;;;4991459;28;20132;-70
2022/04/19 04:32:06;;;;;;;9.35;5.18;;;;;;;;;;5008345;28;20038;-69
2022/04/19 04:34:33;;;;;;;5.97;4.95;;;;;;;;;;4992245;28;20045;-70
2022/04/19 04:37:00;;;;;;;11.00;5.38;;;;;;;;;;4992110;28;20053;-70
2022/04/19 04:39:26;;;;;;;5.60;5.10;;;;;;;;;;5008107;28;20132;-70
2022/04/19 04:42:11;;;;;;;5.40;3.92;;;;;;;;;;5005734;28;20045;-70
2022/04/19 04:44:37;;;;;;;6.03;4.82;;;;;;;;;;5008797;28;20493;-69
2022/04/19 04:49:49;;;;;;;7.15;4.60;;;;;;;;;;4991518;28;20542;-70
2022/04/19 04:52:19;;;;;;;5.53;5.03;;;;;;;;;;4980306;28;20065;-70
2022/04/19 04:54:46;;;;;;;8.60;5.03;;;;;;;;;;4995602;28;20065;-70
2022/04/19 04:57:19;;;;;;;5.43;4.07;;;;;;;;;;5011765;28;20108;-70
2022/04/19 04:59:48;;;;;;;7.40;4.55;;;;;;;;;;4995342;28;20132;-71
2022/04/19 05:02:14;;;;;;;5.30;4.80;;;;;;;;;;4996499;28;20526;-71
2022/04/19 05:04:42;;;;;;;9.68;5.15;;;;;;;;;;4993625;28;20057;-70
2022/04/19 05:07:08;;;;;;;5.32;4.88;;;;;;;;;;5005786;28;20104;-70
2022/04/19 05:09:43;;;;;;;5.97;4.78;;;;;;;;;;4991851;28;20077;-71
2022/04/19 05:12:09;;;;;;;4.93;4.40;;;;;;;;;;4995765;28;20080;-70
2022/04/19 05:14:38;;;;;;;5.53;4.13;;;;;;;;;;5011942;28;20045;-71
2022/04/19 05:17:04;;;;;;;5.15;4.65;;;;;;;;;;4995437;28;20049;-70
2022/04/19 05:19:32;;;;;;;4.05;3.75;;;;;;;;;;4979306;28;20053;-70
2022/04/19 05:21:57;;;;;;;8.07;4.22;;;;;;;;;;4995484;28;20530;-70
2022/04/19 05:24:24;;;;;;;6.25;4.85;;;;;;;;;;4990689;28;20061;-71
2022/04/19 05:26:51;;;;;;;4.93;4.45;;;;;;;;;;4994628;28;20117;-70
2022/04/19 05:29:17;;;;;;;6.20;5.65;;;;;;;;;;4994466;28;20207;-71
2022/04/19 05:31:43;;;;;;;6.57;5.35;;;;;;;;;;4994560;28;20414;-71
2022/04/19 05:34:10;;;;;;;5.30;4.47;;;;;;;;;;4993700;28;20049;-72
2022/04/19 05:36:36;;;;;;;5.95;4.45;;;;;;;;;;4962355;28;20069;-71
2022/04/19 05:39:02;;;;;;;7.15;5.57;;;;;;;;;;4978315;28;20070;-71
2022/04/19 05:41:30;;;;;;;11.52;5.13;;;;;;;;;;5009422;28;20057;-69
2022/04/19 05:43:56;;;;;;;7.25;6.65;;;;;;;;;;4994228;28;20039;-70
2022/04/19 05:46:22;;;;;;;17.08;5.97;;;;;;;;;;4993747;28;20046;-69
2022/04/19 05:48:49;;;;;;;5.10;4.55;;;;;;;;;;5014080;28;20548;-69
2022/04/19 05:51:15;;;;;;;6.93;5.18;;;;;;;;;;5031525;28;20044;-69
2022/04/19 05:53:42;;;;;;;7.93;5.75;;;;;;;;;;4997619;28;20545;-69
2022/04/19 05:56:10;;;;;;;8.50;4.65;;;;;;;;;;5030493;28;20076;-69
2022/04/19 05:58:36;;;;;;;6.43;4.53;;;;;;;;;;5024533;28;20085;-69
2022/04/19 06:01:02;;;;;;;4.80;4.03;;;;;;;;;;5029106;28;20107;-71
2022/04/19 06:06:15;;;;;;;6.15;4.20;;;;;;;;;;5014244;28;20252;-71
2022/04/19 06:08:43;;;;;;;5.40;3.90;;;;;;;;;;5013433;28;20045;-72
2022/04/19 06:11:12;;;;;;;6.97;4.32;;;;;;;;;;5012001;28;20121;-71
2022/04/19 06:13:40;;;;;;;6.80;4.15;;;;;;;;;;4993693;28;20072;-71
2022/04/19 06:16:07;;;;;;;5.43;4.38;;;;;;;;;;4994004;28;20037;-70
2022/04/19 06:18:38;;;;;;;4.35;4.05;;;;;;;;;;4993647;28;20049;-70
2022/04/19 06:21:25;;;;;;;2.92;2.72;;;;;;;;;;5010027;28;20140;-71
2022/04/19 06:23:50;;;;;;;4.50;4.10;;;;;;;;;;4993059;28;20532;-71
2022/04/19 06:26:16;;;;;;;4.15;3.80;;;;;;;;;;4990085;28;20042;-69
2022/04/19 06:28:44;;;;;;;5.32;3.58;;;;;;;;;;4994042;28;20132;-70
2022/04/19 06:31:15;;;;;;;4.90;4.10;;;;;;;;;;5011397;28;20395;-70
2022/04/19 06:33:45;;;;;;;5.00;4.60;;;;;;;;;;5008623;28;20041;-70
2022/04/19 06:36:12;;;;;;;4.97;4.55;;;;;;;;;;4977305;28;20511;-70
2022/04/19 06:38:37;;;;;;;8.27;4.38;;;;;;;;;;5010851;28;20108;-69
2022/04/19 06:41:04;;;;;;;3.55;3.05;;;;;;;;;;4993229;28;20054;-70
2022/04/19 06:43:32;;;;;;;3.85;3.53;;;;;;;;;;4992876;28;20045;-69
2022/04/19 06:46:12;;;;;;;4.47;3.90;;;;;;;;;;5008427;28;20098;-70
2022/04/19 06:48:39;;;;;;;5.28;3.90;;;;;;;;;;4993131;28;20037;-70
2022/04/19 06:51:05;;;;;;;4.03;3.78;;;;;;;;;;4992873;28;20038;-70
2022/04/19 06:53:32;;;;;;;3.90;3.47;;;;;;;;;;4993173;28;20057;-70
2022/04/19 06:56:04;;;;;;;3.97;3.45;;;;;;;;;;5009270;28;20534;-70
2022/04/19 06:58:33;;;;;;;3.60;3.30;;;;;;;;;;5008678;28;20041;-70
2022/04/19 07:00:58;;;;;;;3.78;3.47;;;;;;;;;;5011064;28;20137;-70
2022/04/19 07:03:25;;;;;;;3.80;3.25;;;;;;;;;;5012475;28;20125;-70
2022/04/19 07:06:00;;;;;;;4.43;3.50;;;;;;;;;;5013850;28;20049;-68
2022/04/19 07:08:26;;;;;;;4.32;4.03;;;;;;;;;;5009010;28;20033;-69
2022/04/19 07:10:52;;;;;;;3.50;2.90;;;;;;;;;;5008755;28;20107;-70
2022/04/19 07:13:38;;;;;;;3.97;3.67;;;;;;;;;;4995223;28;20038;-69
2022/04/19 07:16:05;;;;;;;4.85;3.00;;;;;;;;;;4992569;28;20573;-69
2022/04/19 07:18:31;;;;;;;5.57;3.33;;;;;;;;;;5010174;28;20053;-71
2022/04/19 07:26:40;;;;;;;5.22;3.67;;;;;;;;;;5008703;28;20041;-69
2022/04/19 07:29:11;;;;;;;5.72;4.28;;;;;;;;;;4992629;28;20048;-69
2022/04/19 07:31:43;;;;;;;8.35;3.90;;;;;;;;;;4992985;28;20072;-70
2022/04/19 07:34:18;;;;;;;4.72;3.70;;;;;;;;;;4991941;28;20041;-70
2022/04/19 07:36:45;;;;;;;10.13;3.38;;;;;;;;;;5009068;28;20120;-70
2022/04/19 07:39:12;;;;;;;4.38;3.97;;;;;;;;;;4999571;28;20429;-69
2022/04/19 07:41:46;;;;;;;3.83;3.40;;;;;;;;;;4994020;28;20116;-70
2022/04/19 07:44:15;;;;;;;8.50;4.00;;;;;;;;;;4989997;28;20045;-69
2022/04/19 07:46:45;;;;;;;4.00;3.47;;;;;;;;;;4990844;28;20485;-68
2022/04/19 07:49:11;;;;;;;3.92;3.58;;;;;;;;;;5007015;28;20045;-69
2022/04/19 07:51:39;;;;;;;4.15;3.75;;;;;;;;;;4995100;28;20088;-68
2022/04/19 07:54:05;;;;;;;3.95;3.55;;;;;;;;;;5010362;28;20046;-69
2022/04/19 07:56:32;;;;;;;5.25;3.88;;;;;;;;;;4994335;28;20478;-69
2022/04/19 07:59:01;;;;;;;4.13;3.72;;;;;;;;;;5009685;28;20112;-69
2022/04/19 08:01:27;;;;;;;8.90;3.50;;;;;;;;;;5009474;28;20050;-70
2022/04/19 08:03:53;;;;;;;5.28;4.32;;;;;;;;;;4997976;28;20095;-69
2022/04/19 08:06:19;;;;;;;4.43;3.97;;;;;;;;;;5029358;28;20072;-70
2022/04/19 08:08:46;;;;;;;3.42;3.22;;;;;;;;;;5029352;28;20041;-69
2022/04/19 08:11:11;;;;;;;5.65;3.70;;;;;;;;;;5020885;28;20038;-68
2022/04/19 08:13:38;;;;;;;5.47;3.75;;;;;;;;;;4990956;28;20072;-68
2022/04/19 08:16:05;;;;;;;4.32;3.65;;;;;;;;;;4975516;28;20042;-69
2022/04/19 08:18:32;;;;;;;5.90;3.67;;;;;;;;;;4991821;28;20046;-69
2022/04/19 08:20:58;;;;;;;7.30;3.60;;;;;;;;;;4991696;28;20554;-69
2022/04/19 08:23:24;;;;;;;6.22;3.90;;;;;;;;;;4991332;28;20124;-69
2022/04/19 08:25:59;;;;;;;3.83;3.53;;;;;;;;;;5006771;28;20124;-69
2022/04/19 08:28:27;;;;;;;5.35;3.65;;;;;;;;;;5005343;28;20056;-68
2022/04/19 08:30:53;;;;;;;3.65;3.35;;;;;;;;;;4974782;28;20100;-68
2022/04/19 08:33:24;;;;;;;4.97;3.53;;;;;;;;;;5008026;28;20060;-68
2022/04/19 08:35:50;;;;;;;4.07;3.70;;;;;;;;;;4991517;28;20038;-69
2022/04/19 08:38:17;;;;;;;6.78;4.70;;;;;;;;;;5008176;28;20060;-69
2022/04/19 08:40:53;;;;;;;4.95;4.07;;;;;;;;;;4991602;28;20093;-68
2022/04/19 08:43:22;;;;;;;5.90;4.85;;;;;;;;;;4991717;28;20140;-68
2022/04/19 08:45:51;;;;;;;4.00;3.53;;;;;;;;;;5002614;28;20511;-69
2022/04/19 08:48:17;;;;;;;5.28;4.78;;;;;;;;;;4997067;28;20600;-70
2022/04/19 08:50:46;;;;;;;5.22;4.82;;;;;;;;;;5008094;28;20184;-71
2022/04/19 08:58:45;;;;;;;4.85;4.40;;;;;;;;;;5007385;28;20040;-70
2022/04/19 09:01:11;;;;;;;5.40;3.90;;;;;;;;;;5009364;28;20053;-70
2022/04/19 09:03:41;;;;;;;6.13;4.65;;;;;;;;;;5005120;28;20100;-71
2022/04/19 09:06:08;;;;;;;5.95;3.60;;;;;;;;;;4998203;28;20057;-70
2022/04/19 09:08:34;;;;;;;4.78;4.28;;;;;;;;;;5009071;28;20038;-70
2022/04/19 09:11:05;;;;;;;7.05;4.50;;;;;;;;;;4991251;28;20041;-71
2022/04/19 09:13:31;;;;;;;4.57;4.13;;;;;;;;;;5007965;28;20506;-71
2022/04/19 09:16:01;;;;;;;4.15;3.40;;;;;;;;;;5009430;28;20054;-69
2022/04/19 09:18:30;;;;;;;4.10;3.80;;;;;;;;;;5009577;28;20041;-70
2022/04/19 09:20:57;;;;;;;5.60;3.65;;;;;;;;;;5009068;28;20058;-70
2022/04/19 09:23:23;;;;;;;3.65;3.38;;;;;;;;;;5007440;28;20048;-71
2022/04/19 09:25:51;;;;;;;4.45;3.75;;;;;;;;;;5008673;28;20038;-70
2022/04/19 09:28:18;;;;;;;7.35;3.00;;;;;;;;;;5009163;28;20038;-70
2022/04/19 09:30:44;;;;;;;3.80;3.50;;;;;;;;;;4990660;28;20041;-70
2022/04/19 09:33:11;;;;;;;6.82;3.40;;;;;;;;;;5007920;28;20046;-70
2022/04/19 09:35:55;;;;;;;3.63;3.33;;;;;;;;;;5010365;28;20506;-70
2022/04/19 09:38:37;;;;;;;4.35;3.58;;;;;;;;;;5012601;28;20064;-71
2022/04/19 09:41:04;;;;;;;4.07;3.70;;;;;;;;;;5012491;28;20050;-71
2022/04/19 09:43:30;;;;;;;3.30;3.00;;;;;;;;;;5012752;28;20038;-71
2022/04/19 09:45:58;;;;;;;3.22;3.00;;;;;;;;;;5012398;28;20052;-73
2022/04/19 09:48:27;;;;;;;4.32;3.65;;;;;;;;;;5012771;28;20518;-71
2022/04/19 09:50:56;;;;;;;4.18;3.55;;;;;;;;;;5010783;28;20048;-72
2022/04/19 09:53:23;;;;;;;3.40;3.20;;;;;;;;;;5004268;28;20089;-72
2022/04/19 09:55:49;;;;;;;3.88;3.58;;;;;;;;;;5013716;28;20044;-72
2022/04/19 09:58:15;;;;;;;4.78;4.38;;;;;;;;;;5023214;28;20055;-71
2022/04/19 10:00:42;;;;;;;3.05;2.83;;;;;;;;;;5019502;28;20049;-73
2022/04/19 10:08:54;;;;;;;5.03;4.60;;;;;;;;;;4967641;28;20036;-71
2022/04/19 10:11:20;;;;;;;4.40;4.00;;;;;;;;;;5001974;28;20426;-71
2022/04/19 10:13:46;;;;;;;5.40;4.88;;;;;;;;;;4995541;28;20279;-70
2022/04/19 10:16:12;;;;;;;5.43;4.50;;;;;;;;;;4990979;28;20055;-70
2022/04/19 10:18:41;;;;;;;7.35;4.60;;;;;;;;;;4994114;28;20050;-72
2022/04/19 10:21:11;;;;;;;4.25;3.85;;;;;;;;;;4993740;28;20046;-71
2022/04/19 10:23:38;;;;;;;4.50;4.10;;;;;;;;;;4993182;28;20049;-71
2022/04/19 10:26:13;;;;;;;4.80;3.70;;;;;;;;;;4992626;28;20046;-71
2022/04/19 10:28:39;;;;;;;4.25;3.95;;;;;;;;;;4992456;28;20414;-70
2022/04/19 10:31:05;;;;;;;3.92;3.63;;;;;;;;;;4992181;28;20144;-71
2022/04/19 10:33:53;;;;;;;6.35;3.17;;;;;;;;;;4992462;28;20431;-71
2022/04/19 10:36:20;;;;;;;2.88;2.70;;;;;;;;;;4992013;28;20201;-70
2022/04/19 10:39:05;;;;;;;4.65;3.90;;;;;;;;;;4992298;28;20094;-71
2022/04/19 10:41:51;;;;;;;3.65;3.33;;;;;;;;;;4991730;28;20089;-71
2022/04/19 10:44:23;;;;;;;7.45;3.20;;;;;;;;;;4974450;28;20081;-70
2022/04/19 10:47:05;;;;;;;4.85;3.80;;;;;;;;;;4991450;28;20431;-70
2022/04/19 10:49:35;;;;;;;7.53;3.78;;;;;;;;;;4991827;28;20057;-71
2022/04/19 10:52:01;;;;;;;4.38;3.40;;;;;;;;;;4991777;28;20093;-70
2022/04/19 10:54:46;;;;;;;3.45;3.25;;;;;;;;;;4990617;28;20046;-71
2022/04/19 11:00:01;;;;;;;4.28;3.88;;;;;;;;;;4992053;28;20046;-71
2022/04/19 11:02:36;;;;;;;3.10;2.90;;;;;;;;;;5009775;28;20513;-71
2022/04/19 11:05:03;;;;;;;3.85;3.30;;;;;;;;;;5010757;28;20077;-71
2022/04/19 11:07:42;;;;;;;3.05;2.85;;;;;;;;;;5010215;28;20048;-71
2022/04/19 11:10:08;;;;;;;3.15;2.95;;;;;;;;;;5011024;28;20049;-71
2022/04/19 11:12:56;;;;;;;3.25;2.92;;;;;;;;;;5011134;28;20052;-71
2022/04/19 11:15:34;;;;;;;3.00;2.80;;;;;;;;;;5010978;28;20046;-71
2022/04/19 11:18:18;;;;;;;4.07;2.92;;;;;;;;;;4993349;28;20076;-71
2022/04/19 11:20:47;;;;;;;6.45;3.25;;;;;;;;;;5010762;28;20045;-71
2022/04/19 11:23:18;;;;;;;2.20;2.10;;;;;;;;;;5010801;28;20046;-71
2022/04/19 11:25:45;;;;;;;4.25;3.42;;;;;;;;;;5010708;28;20081;-71
2022/04/19 11:28:11;;;;;;;4.32;2.75;;;;;;;;;;5010921;28;20049;-71
2022/04/19 11:30:44;;;;;;;5.07;2.60;;;;;;;;;;5009145;28;20498;-71
2022/04/19 11:33:10;;;;;;;4.45;2.70;;;;;;;;;;5010904;28;20072;-71
2022/04/19 11:35:36;;;;;;;4.13;2.67;;;;;;;;;;5010659;28;20053;-71
2022/04/19 11:38:08;;;;;;;3.10;2.33;;;;;;;;;;4992961;28;20153;-71
2022/04/19 11:48:56;;;;;;;2.78;2.58;;;;;;;;;;5010432;28;20046;-71
2022/04/19 11:51:23;;;;;;;4.20;2.63;;;;;;;;;;5010269;28;20041;-71
2022/04/19 11:53:52;;;;;;;2.63;2.47;;;;;;;;;;5010420;28;20510;-71
2022/04/19 11:56:18;;;;;;;2.60;2.40;;;;;;;;;;5009726;28;20138;-71
2022/04/19 11:58:53;;;;;;;2.80;2.60;;;;;;;;;;4992175;28;20503;-71
2022/04/19 12:01:20;;;;;;;4.15;2.53;;;;;;;;;;4992402;28;20056;-71
2022/04/19 12:03:52;;;;;;;3.38;2.05;;;;;;;;;;5010501;28;20041;-71
2022/04/19 12:06:18;;;;;;;2.40;2.30;;;;;;;;;;4992694;28;20072;-71
2022/04/19 12:08:50;;;;;;;2.28;2.00;;;;;;;;;;4992582;28;20041;-71
2022/04/19 12:11:35;;;;;;;2.22;2.10;;;;;;;;;;5010606;28;20045;-71
2022/04/19 12:14:03;;;;;;;2.00;1.90;;;;;;;;;;5010689;28;20518;-71
2022/04/19 12:16:31;;;;;;;2.10;2.00;;;;;;;;;;5010427;28;20100;-70
2022/04/19 12:18:58;;;;;;;1.90;1.80;;;;;;;;;;5010019;28;20506;-71
2022/04/19 12:21:40;;;;;;;6.78;2.15;;;;;;;;;;4992061;28;20636;-71
2022/04/19 12:24:07;;;;;;;2.63;2.53;;;;;;;;;;5009890;28;20070;-71
2022/04/19 12:26:32;;;;;;;2.38;2.28;;;;;;;;;;5010011;28;20048;-71
2022/04/19 12:29:08;;;;;;;2.47;2.20;;;;;;;;;;5010128;28;20049;-71
2022/04/19 12:31:36;;;;;;;2.35;2.15;;;;;;;;;;5008707;28;20070;-71
2022/04/19 12:34:02;;;;;;;2.67;2.05;;;;;;;;;;5008291;28;20038;-70
2022/04/19 12:36:29;;;;;;;2.17;2.08;;;;;;;;;;5008039;28;20549;-71
2022/04/19 12:39:01;;;;;;;5.75;2.10;;;;;;;;;;4991241;28;20163;-72
2022/04/19 12:41:37;;;;;;;4.97;2.90;;;;;;;;;;5008215;28;20053;-71
2022/04/19 12:44:03;;;;;;;4.28;2.70;;;;;;;;;;5008976;28;20474;-71
2022/04/19 12:46:30;;;;;;;9.60;2.53;;;;;;;;;;5007560;28;20351;-70
2022/04/19 12:48:57;;;;;;;2.13;1.92;;;;;;;;;;5008392;28;20125;-71
2022/04/19 12:51:24;;;;;;;5.28;2.15;;;;;;;;;;4990404;28;20506;-71
2022/04/19 12:54:03;;;;;;;2.20;2.10;;;;;;;;;;5008442;28;20049;-70
2022/04/19 12:56:30;;;;;;;2.65;2.50;;;;;;;;;;5007767;28;20029;-71
2022/04/19 12:58:56;;;;;;;6.07;2.30;;;;;;;;;;5007842;28;20129;-71
2022/04/19 13:01:22;;;;;;;2.72;2.33;;;;;;;;;;5007832;28;20049;-70
2022/04/19 13:03:48;;;;;;;2.97;2.25;;;;;;;;;;5006511;28;20045;-71
2022/04/19 13:14:27;;;;;;;2.45;2.13;;;;;;;;;;5009681;28;20041;-72
2022/04/19 13:16:53;;;;;;;5.05;2.42;;;;;;;;;;5010488;28;20034;-71
2022/04/19 13:19:18;;;;;;;3.20;2.20;;;;;;;;;;5011334;28;20034;-69
2022/04/19 13:21:44;;;;;;;2.03;1.88;;;;;;;;;;5012838;28;20100;-70
2022/04/19 13:24:10;;;;;;;2.22;2.05;;;;;;;;;;4962766;28;20042;-71
2022/04/19 13:26:36;;;;;;;2.30;2.20;;;;;;;;;;4994584;28;20037;-71
2022/04/19 13:29:02;;;;;;;2.78;2.05;;;;;;;;;;4995103;28;20054;-71
2022/04/19 13:31:28;;;;;;;2.17;1.92;;;;;;;;;;5012327;28;20125;-71
2022/04/19 13:33:53;;;;;;;2.40;2.20;;;;;;;;;;5011935;28;20120;-71
2022/04/19 13:36:20;;;;;;;5.07;2.15;;;;;;;;;;4993191;28;20092;-71
2022/04/19 13:38:46;;;;;;;2.47;2.13;;;;;;;;;;5012249;28;20463;-71
2022/04/19 13:41:11;;;;;;;3.97;2.20;;;;;;;;;;5012232;28;20081;-71
2022/04/19 13:43:37;;;;;;;3.78;2.40;;;;;;;;;;4979166;28;20041;-71
2022/04/19 13:46:03;;;;;;;2.72;2.38;;;;;;;;;;5011770;28;20544;-70
2022/04/19 13:48:29;;;;;;;3.40;2.42;;;;;;;;;;4994153;28;20037;-71
2022/04/19 13:50:55;;;;;;;3.42;1.90;;;;;;;;;;5013454;28;20038;-71
2022/04/19 13:53:21;;;;;;;2.42;2.25;;;;;;;;;;5011006;28;20312;-71
2022/04/19 13:55:47;;;;;;;4.07;2.38;;;;;;;;;;5010791;28;20292;-71
2022/04/19 13:58:13;;;;;;;2.38;2.17;;;;;;;;;;5010669;28;20046;-70
2022/04/19 14:00:39;;;;;;;1.95;1.85;;;;;;;;;;4988640;28;20198;-71
2022/04/19 14:03:05;;;;;;;1.98;1.88;;;;;;;;;;5013343;28;20046;-71
2022/04/19 14:05:31;;;;;;;2.30;2.20;;;;;;;;;;5009037;28;20045;-72
2022/04/19 14:07:57;;;;;;;2.40;2.20;;;;;;;;;;5010850;28;20494;-71
2022/04/19 14:10:23;;;;;;;3.53;2.35;;;;;;;;;;5010963;28;20065;-72
2022/04/19 14:12:49;;;;;;;2.90;2.40;;;;;;;;;;5010822;28;20034;-72
2022/04/19 14:15:14;;;;;;;2.45;2.25;;;;;;;;;;5010845;28;20103;-72
2022/04/19 14:17:42;;;;;;;2.50;2.28;;;;;;;;;;4993777;28;20034;-71
2022/04/19 14:20:08;;;;;;;2.95;2.75;;;;;;;;;;5010476;28;20172;-71
2022/04/19 14:22:34;;;;;;;4.55;2.75;;;;;;;;;;5010015;28;20084;-72
2022/04/19 14:25:00;;;;;;;3.88;2.10;;;;;;;;;;5010972;28;20041;-71
2022/04/19 14:27:26;;;;;;;2.28;2.17;;;;;;;;;;5011332;28;20030;-71
2022/04/19 14:35:20;;;;;;;3.08;2.30;;;;;;;;;;5010310;28;20042;-72
2022/04/19 14:37:46;;;;;;;3.80;2.40;;;;;;;;;;5010375;28;20111;-71
2022/04/19 14:40:13;;;;;;;3.30;2.47;;;;;;;;;;5010672;28;20097;-71
2022/04/19 14:42:39;;;;;;;2.67;2.22;;;;;;;;;;5011648;28;20042;-71
2022/04/19 14:45:05;;;;;;;5.57;2.70;;;;;;;;;;4989930;28;20593;-72
2022/04/19 14:47:31;;;;;;;4.45;2.50;;;;;;;;;;4992826;28;20522;-71
2022/04/19 14:49:56;;;;;;;1.98;1.88;;;;;;;;;;5008971;28;20046;-72
2022/04/19 14:52:23;;;;;;;2.70;2.50;;;;;;;;;;5010449;28;20042;-72
2022/04/19 14:54:49;;;;;;;7.05;2.88;;;;;;;;;;4993559;28;20137;-71
2022/04/19 14:57:15;;;;;;;4.80;3.10;;;;;;;;;;5006821;28;20053;-71
2022/04/19 14:59:45;;;;;;;5.75;3.00;;;;;;;;;;5010612;28;20046;-72
2022/04/19 15:02:14;;;;;;;4.22;3.38;;;;;;;;;;5010636;28;20046;-71
2022/04/19 15:04:40;;;;;;;3.55;2.72;;;;;;;;;;5001071;28;20157;-72
2022/04/19 15:07:06;;;;;;;2.55;2.35;;;;;;;;;;5009987;28;20607;-71
2022/04/19 15:09:32;;;;;;;5.18;2.50;;;;;;;;;;5009336;28;20089;-71
2022/04/19 15:11:58;;;;;;;3.30;3.03;;;;;;;;;;5012145;28;20038;-72
2022/04/19 15:14:24;;;;;;;3.42;2.67;;;;;;;;;;4990504;28;20038;-72
2022/04/19 15:16:50;;;;;;;2.85;2.65;;;;;;;;;;5010001;28;20053;-71
2022/04/19 15:19:16;;;;;;;3.40;3.10;;;;;;;;;;5008332;28;20030;-72
2022/04/19 15:21:44;;;;;;;5.90;3.20;;;;;;;;;;5010326;28;20061;-73
2022/04/19 15:24:10;;;;;;;3.33;2.80;;;;;;;;;;5010152;28;20189;-72
2022/04/19 15:26:36;;;;;;;4.20;3.20;;;;;;;;;;4991791;28;20133;-71
2022/04/19 15:29:03;;;;;;;4.80;3.42;;;;;;;;;;5008334;28;20037;-72
2022/04/19 15:31:29;;;;;;;4.25;3.88;;;;;;;;;;4991919;28;20037;-71
2022/04/19 15:33:56;;;;;;;4.03;3.38;;;;;;;;;;5009821;28;20521;-70
2022/04/19 15:36:24;;;;;;;4.50;2.88;;;;;;;;;;5009878;28;20038;-70
2022/04/19 15:38:50;;;;;;;4.78;3.10;;;;;;;;;;4959261;28;20045;-71
2022/04/19 15:41:15;;;;;;;2.97;2.70;;;;;;;;;;5008737;28;20100;-72
2022/04/19 15:43:41;;;;;;;3.05;2.80;;;;;;;;;;5009742;28;20053;-71